Time;durP1;ratioP1;P1;durP2;ratioP2;P2;SDS_P1;SDS_P2;PMS_P1;PMS_P2;Temp;Humidity;BMP_temperature;BMP_pressure;BME280_temperature;BME280_humidity;BME280_pressure;Samples;Min_cycle;Max_cycle;Signal;HPM_P1;HPM_P2
2022/09/13 00:02:06;;;;;;;;;;;;;;;14.45;84.28;98632.45;1685886;83;20140;-67
2022/09/13 00:04:33;;;;;;;;;;;;;;;14.44;84.34;98632.69;1719320;82;20084;-67
2022/09/13 00:06:59;;;;;;;;;;;;;;;14.49;84.28;98626.99;1717158;82;20119;-67
2022/09/13 00:09:26;;;;;;;;;;;;;;;14.51;84.06;98627.59;1678272;83;21147;-67
2022/09/13 00:11:52;;;;;;;;;;;;;;;14.51;84.02;98628.93;1704669;82;20157;-67
2022/09/13 00:14:18;;;;;;;;;;;;;;;14.53;83.97;98628.70;1716274;82;20194;-66
2022/09/13 00:16:44;;;;;;;;;;;;;;;14.53;83.77;98623.34;1685162;83;20143;-66
2022/09/13 00:19:11;;;;;;;;;;;;;;;14.53;83.78;98622.84;1708387;82;20086;-66
2022/09/13 00:21:37;;;;;;;;;;;;;;;14.54;83.82;98627.67;1689294;83;21157;-67
2022/09/13 00:24:04;;;;;;;;;;;;;;;14.55;83.87;98623.44;1689542;83;20185;-67
2022/09/13 00:26:30;;;;;;;;;;;;;;;14.58;83.86;98622.18;1716326;82;20164;-66
2022/09/13 00:28:57;;;;;;;;;;;;;;;14.59;83.85;98627.84;1688231;83;20457;-66
2022/09/13 00:31:25;;;;;;;;;;;;;;;14.58;83.79;98631.03;1712472;82;20147;-66
2022/09/13 00:33:51;;;;;;;;;;;;;;;14.59;83.74;98625.17;1690919;83;21088;-66
2022/09/13 00:36:18;;;;;;;;;;;;;;;14.57;83.76;98624.58;1702716;82;20101;-66
2022/09/13 00:38:44;;;;;;;;;;;;;;;14.56;83.75;98626.42;1690722;83;20123;-66
2022/09/13 00:41:13;;;;;;;;;;;;;;;14.56;83.70;98625.09;1703792;82;20113;-66
2022/09/13 00:43:50;;;;;;;;;;;;;;;14.54;83.62;98622.33;1690786;83;20123;-67
2022/09/13 00:46:26;;;;;;;;;;;;;;;14.53;83.59;98626.84;1707846;82;21778;-67
2022/09/13 00:48:56;;;;;;;;;;;;;;;14.54;83.50;98625.00;1681141;83;20095;-67
2022/09/13 00:51:22;;;;;;;;;;;;;;;14.52;83.41;98627.08;1704989;82;20091;-67
2022/09/13 00:53:49;;;;;;;;;;;;;;;14.49;83.51;98632.34;1658615;83;20145;-67
2022/09/13 00:56:25;;;;;;;;;;;;;;;14.49;83.61;98635.53;1678302;83;20124;-67
2022/09/13 00:58:57;;;;;;;;;;;;;;;14.49;83.56;98631.01;1678972;83;21195;-67
2022/09/13 01:01:26;;;;;;;;;;;;;;;14.48;83.65;98633.37;1702906;82;20082;-67
2022/09/13 01:03:52;;;;;;;;;;;;;;;14.50;83.59;98625.94;1695873;83;20425;-67
2022/09/13 01:06:21;;;;;;;;;;;;;;;14.47;83.55;98616.20;1717052;82;20436;-66
2022/09/13 01:08:51;;;;;;;;;;;;;;;14.45;83.53;98623.09;1699013;83;20441;-66
2022/09/13 01:11:21;;;;;;;;;;;;;;;14.47;83.56;98623.69;1712459;82;21137;-66
2022/09/13 01:13:47;;;;;;;;;;;;;;;14.45;83.57;98621.75;1719160;82;20440;-67
2022/09/13 01:16:14;;;;;;;;;;;;;;;14.46;83.59;98628.75;1712708;82;20095;-67
2022/09/13 01:18:40;;;;;;;;;;;;;;;14.46;83.62;98627.42;1698953;83;20776;-67
2022/09/13 01:21:22;;;;;;;;;;;;;;;14.46;83.63;98633.28;1710153;82;20209;-67
2022/09/13 01:24:04;;;;;;;;;;;;;;;14.45;83.58;98631.63;1719522;82;21251;-66
2022/09/13 01:26:49;;;;;;;;;;;;;;;14.46;83.42;98631.44;1699989;82;20094;-67
2022/09/13 01:29:43;;;;;;;;;;;;;;;14.44;83.35;98633.51;1691490;83;20101;-67
2022/09/13 01:32:14;;;;;;;;;;;;;;;14.40;83.42;98630.12;1714922;82;20083;-67
2022/09/13 01:34:44;;;;;;;;;;;;;;;14.37;83.51;98635.89;1719286;82;20079;-67
2022/09/13 01:37:17;;;;;;;;;;;;;;;14.37;83.51;98635.38;1698301;83;21152;-66
2022/09/13 01:39:59;;;;;;;;;;;;;;;14.37;83.46;98633.22;1694156;83;20229;-67
2022/09/13 01:42:39;;;;;;;;;;;;;;;14.37;83.48;98642.07;1698909;83;20461;-67
2022/09/13 01:45:24;;;;;;;;;;;;;;;14.35;83.61;98634.78;1698848;83;20103;-66
2022/09/13 01:48:10;;;;;;;;;;;;;;;14.36;83.43;98633.76;1690338;83;20103;-67
2022/09/13 01:50:42;;;;;;;;;;;;;;;14.33;83.31;98635.52;1684699;83;21121;-66
2022/09/13 01:53:27;;;;;;;;;;;;;;;14.33;83.26;98630.17;1686821;83;20091;-67
2022/09/13 01:56:06;;;;;;;;;;;;;;;14.39;82.96;98627.95;1710219;82;20097;-67
2022/09/13 01:58:42;;;;;;;;;;;;;;;14.52;82.65;98621.73;1696343;83;20148;-67
2022/09/13 02:01:20;;;;;;;;;;;;;;;14.29;83.33;98628.11;1700104;82;20090;-67
2022/09/13 02:04:00;;;;;;;;;;;;;;;14.23;83.65;98625.77;1711088;82;21164;-67
2022/09/13 02:06:30;;;;;;;;;;;;;;;14.22;83.70;98631.63;1718504;82;20083;-67
2022/09/13 02:09:02;;;;;;;;;;;;;;;14.23;83.64;98638.61;1716093;82;20174;-67
2022/09/13 02:11:28;;;;;;;;;;;;;;;14.29;83.26;98636.14;1709309;82;20112;-67
2022/09/13 02:14:12;;;;;;;;;;;;;;;14.31;83.16;98639.41;1710170;82;20216;-66
2022/09/13 02:16:54;;;;;;;;;;;;;;;14.29;83.04;98640.16;1709191;82;20118;-67
2022/09/13 02:19:27;;;;;;;;;;;;;;;14.28;83.23;98635.31;1663637;85;20092;-67
2022/09/13 02:21:57;;;;;;;;;;;;;;;14.27;83.16;98635.00;1701981;82;20094;-67
2022/09/13 02:24:27;;;;;;;;;;;;;;;14.26;83.07;98628.54;1695806;83;20489;-67
2022/09/13 02:26:53;;;;;;;;;;;;;;;14.27;83.10;98633.66;1716314;82;20401;-67
2022/09/13 02:29:20;;;;;;;;;;;;;;;14.26;83.24;98634.69;1678508;83;22123;-67
2022/09/13 02:31:50;;;;;;;;;;;;;;;14.26;83.31;98639.23;1710881;82;20122;-67
2022/09/13 02:34:20;;;;;;;;;;;;;;;14.27;83.22;98634.17;1690698;83;20226;-67
2022/09/13 02:36:47;;;;;;;;;;;;;;;14.27;83.21;98640.34;1681835;83;20170;-67
2022/09/13 02:39:16;;;;;;;;;;;;;;;14.26;83.24;98636.02;1705500;82;20146;-67
2022/09/13 02:41:49;;;;;;;;;;;;;;;14.22;83.38;98645.52;1680446;83;21084;-67
2022/09/13 02:44:22;;;;;;;;;;;;;;;14.21;83.49;98634.50;1716131;82;20104;-67
2022/09/13 02:47:04;;;;;;;;;;;;;;;14.19;83.53;98635.24;1681602;83;20079;-67
2022/09/13 02:50:10;;;;;;;;;;;;;;;14.18;83.64;98638.42;1716215;82;20099;-67
2022/09/13 02:52:49;;;;;;;;;;;;;;;14.24;83.54;98630.07;1676607;83;20159;-67
2022/09/13 02:55:40;;;;;;;;;;;;;;;14.27;83.44;98634.17;1710305;83;21287;-67
2022/09/13 02:58:19;;;;;;;;;;;;;;;14.13;83.88;98634.78;1675976;83;20142;-66
2022/09/13 03:00:46;;;;;;;;;;;;;;;14.09;84.17;98637.05;1709502;82;20114;-67
2022/09/13 03:03:13;;;;;;;;;;;;;;;14.20;83.96;98642.25;1695784;83;20162;-67
2022/09/13 03:05:40;;;;;;;;;;;;;;;14.35;83.18;98636.63;1715514;82;20456;-67
2022/09/13 03:08:09;;;;;;;;;;;;;;;14.33;82.99;98638.20;1678444;84;22115;-67
2022/09/13 03:10:48;;;;;;;;;;;;;;;14.31;82.86;98643.42;1670020;84;20102;-67
2022/09/13 03:13:28;;;;;;;;;;;;;;;14.33;82.76;98646.73;1674460;84;20445;-67
2022/09/13 03:16:07;;;;;;;;;;;;;;;14.32;82.73;98647.25;1674182;84;20422;-67
2022/09/13 03:19:13;;;;;;;;;;;;;;;14.34;82.64;98641.16;1696960;83;20138;-67
2022/09/13 03:21:46;;;;;;;;;;;;;;;14.36;82.54;98640.45;1671350;84;21217;-67
2022/09/13 03:24:24;;;;;;;;;;;;;;;14.35;82.45;98632.11;1677339;84;20158;-66
2022/09/13 03:27:04;;;;;;;;;;;;;;;14.22;82.85;98638.33;1674900;84;20367;-66
2022/09/13 03:29:37;;;;;;;;;;;;;;;14.20;83.08;98637.72;1674458;84;20101;-66
2022/09/13 03:32:10;;;;;;;;;;;;;;;14.21;83.05;98639.86;1674719;84;20421;-67
2022/09/13 03:34:44;;;;;;;;;;;;;;;14.20;83.05;98639.58;1678778;84;21145;-66
2022/09/13 03:37:29;;;;;;;;;;;;;;;14.19;82.93;98637.41;1677916;84;20079;-66
2022/09/13 03:40:07;;;;;;;;;;;;;;;14.19;82.98;98646.77;1677169;84;20150;-67
2022/09/13 03:42:43;;;;;;;;;;;;;;;14.20;83.14;98643.58;1665953;85;20126;-67
2022/09/13 03:45:09;;;;;;;;;;;;;;;14.20;83.05;98645.75;1676586;84;20429;-67
2022/09/13 03:47:36;;;;;;;;;;;;;;;14.23;82.97;98648.52;1669462;84;21203;-67
2022/09/13 03:50:04;;;;;;;;;;;;;;;14.24;83.05;98644.78;1668294;84;20107;-67
2022/09/13 03:52:31;;;;;;;;;;;;;;;14.29;82.79;98646.30;1670729;85;20447;-68
2022/09/13 03:54:57;;;;;;;;;;;;;;;14.33;82.67;98644.89;1667964;84;20811;-67
2022/09/13 03:57:24;;;;;;;;;;;;;;;14.32;82.69;98644.57;1679535;84;20148;-68
2022/09/13 03:59:53;;;;;;;;;;;;;;;14.35;82.59;98646.82;1671315;84;21989;-67
2022/09/13 04:02:19;;;;;;;;;;;;;;;14.40;82.31;98648.34;1676879;84;20098;-68
2022/09/13 04:04:46;;;;;;;;;;;;;;;14.41;82.32;98647.83;1679693;84;20457;-68
2022/09/13 04:07:14;;;;;;;;;;;;;;;14.40;82.30;98642.98;1679418;84;20193;-69
2022/09/13 04:09:40;;;;;;;;;;;;;;;14.42;82.32;98646.27;1674543;84;20114;-70
2022/09/13 04:12:08;;;;;;;;;;;;;;;14.41;82.29;98645.15;1672234;84;22167;-68
2022/09/13 04:14:35;;;;;;;;;;;;;;;14.43;82.22;98650.59;1679785;84;20122;-60
2022/09/13 04:17:01;;;;;;;;;;;;;;;14.39;82.22;98650.70;1679166;84;20147;-60
2022/09/13 04:19:27;;;;;;;;;;;;;;;14.45;82.28;98651.19;1679285;84;20171;-68
2022/09/13 04:21:55;;;;;;;;;;;;;;;14.53;82.49;98652.78;1678202;84;20516;-68
2022/09/13 04:24:23;;;;;;;;;;;;;;;14.57;82.47;98648.66;1677476;84;22134;-68
2022/09/13 04:26:50;;;;;;;;;;;;;;;14.64;82.32;98648.92;1665943;84;20505;-69
2022/09/13 04:29:17;;;;;;;;;;;;;;;14.65;82.18;98649.75;1660126;84;20206;-68
2022/09/13 04:31:47;;;;;;;;;;;;;;;14.66;82.12;98654.87;1670585;84;20742;-68
2022/09/13 04:34:13;;;;;;;;;;;;;;;14.67;81.92;98657.86;1679679;84;20265;-67
2022/09/13 04:36:40;;;;;;;;;;;;;;;14.66;81.88;98656.20;1679168;84;21260;-68
2022/09/13 04:39:06;;;;;;;;;;;;;;;14.68;81.77;98662.16;1665034;84;20481;-66
2022/09/13 04:41:35;;;;;;;;;;;;;;;14.68;81.68;98665.34;1666810;84;20105;-67
2022/09/13 04:44:02;;;;;;;;;;;;;;;14.67;81.64;98665.06;1664682;85;20266;-67
2022/09/13 04:46:29;;;;;;;;;;;;;;;14.69;81.53;98663.81;1673672;85;20147;-66
2022/09/13 04:48:55;;;;;;;;;;;;;;;14.72;81.50;98659.87;1676647;85;21261;-67
2022/09/13 04:51:22;;;;;;;;;;;;;;;14.74;81.54;98660.48;1674688;85;20107;-68
2022/09/13 04:53:56;;;;;;;;;;;;;;;14.74;81.44;98658.63;1667566;85;20098;-67
2022/09/13 04:56:22;;;;;;;;;;;;;;;14.76;81.17;98662.41;1666699;84;20142;-68
2022/09/13 04:58:51;;;;;;;;;;;;;;;14.74;81.18;98665.32;1671901;84;20099;-67
2022/09/13 05:01:17;;;;;;;;;;;;;;;14.76;81.18;98667.26;1678908;84;21887;-68
2022/09/13 05:03:44;;;;;;;;;;;;;;;14.83;81.07;98665.89;1666651;84;20491;-70
2022/09/13 05:06:12;;;;;;;;;;;;;;;14.86;80.92;98661.95;1671690;84;20111;-69
2022/09/13 05:08:39;;;;;;;;;;;;;;;14.84;80.88;98668.34;1676084;84;20119;-68
2022/09/13 05:11:06;;;;;;;;;;;;;;;14.90;80.77;98663.15;1680247;85;20107;-68
2022/09/13 05:13:33;;;;;;;;;;;;;;;14.92;80.80;98665.91;1680205;85;22139;-68
2022/09/13 05:16:02;;;;;;;;;;;;;;;14.94;80.68;98665.71;1679950;85;20409;-67
2022/09/13 05:18:29;;;;;;;;;;;;;;;14.98;80.56;98660.20;1680055;85;20095;-68
2022/09/13 05:20:56;;;;;;;;;;;;;;;15.02;80.28;98658.20;1680033;85;20833;-68
2022/09/13 05:23:23;;;;;;;;;;;;;;;15.05;80.10;98664.98;1680096;85;20103;-71
2022/09/13 05:25:56;;;;;;;;;;;;;;;15.13;79.92;98662.03;1661670;85;22177;-68
2022/09/13 05:28:22;;;;;;;;;;;;;;;15.18;79.80;98663.53;1676780;85;20099;-68
2022/09/13 05:31:01;;;;;;;;;;;;;;;15.23;79.60;98671.22;1670313;85;20123;-67
2022/09/13 05:33:29;;;;;;;;;;;;;;;15.27;79.25;98664.91;1680043;85;20110;-69
2022/09/13 05:35:56;;;;;;;;;;;;;;;15.29;79.07;98659.63;1680049;85;20115;-69
2022/09/13 05:38:22;;;;;;;;;;;;;;;15.37;78.89;98665.23;1670975;85;21939;-70
2022/09/13 05:40:57;;;;;;;;;;;;;;;15.42;78.66;98663.53;1680068;85;20437;-68
2022/09/13 05:43:25;;;;;;;;;;;;;;;15.47;78.22;98669.59;1680346;85;20132;-68
2022/09/13 05:45:51;;;;;;;;;;;;;;;15.53;78.15;98667.38;1674020;85;20442;-68
2022/09/13 05:48:17;;;;;;;;;;;;;;;15.62;78.07;98669.23;1677981;85;20452;-69
2022/09/13 05:50:44;;;;;;;;;;;;;;;15.74;77.63;98670.98;1680071;85;22068;-68
2022/09/13 05:53:10;;;;;;;;;;;;;;;15.88;77.16;98675.14;1665922;85;20114;-68
2022/09/13 05:55:36;;;;;;;;;;;;;;;15.97;76.70;98674.33;1676187;84;20238;-68
2022/09/13 05:58:02;;;;;;;;;;;;;;;15.92;76.23;98670.98;1680067;84;20119;-68
2022/09/13 06:00:30;;;;;;;;;;;;;;;15.80;76.55;98671.41;1674513;84;20125;-68
2022/09/13 06:02:57;;;;;;;;;;;;;;;15.78;76.47;98669.48;1680074;84;21303;-68
2022/09/13 06:05:23;;;;;;;;;;;;;;;15.76;76.30;98663.53;1680162;84;20469;-69
2022/09/13 06:07:51;;;;;;;;;;;;;;;15.77;76.16;98661.13;1680112;84;20090;-69
2022/09/13 06:10:19;;;;;;;;;;;;;;;15.86;75.92;98664.34;1680092;84;20173;-68
2022/09/13 06:12:46;;;;;;;;;;;;;;;15.89;75.70;98667.41;1680202;84;20200;-68
2022/09/13 06:15:14;;;;;;;;;;;;;;;15.87;77.20;98668.16;1679965;84;21096;-68
2022/09/13 06:17:41;;;;;;;;;;;;;;;15.88;77.49;98668.95;1676357;84;20156;-68
2022/09/13 06:20:09;;;;;;;;;;;;;;;15.87;76.75;98669.50;1665352;84;20130;-68
2022/09/13 06:22:36;;;;;;;;;;;;;;;15.86;76.80;98663.00;1680035;84;20590;-68
2022/09/13 06:25:04;;;;;;;;;;;;;;;15.87;76.94;98666.81;1680010;84;20140;-67
2022/09/13 06:27:30;;;;;;;;;;;;;;;15.89;76.77;98666.06;1680002;84;21093;-68
2022/09/13 06:29:56;;;;;;;;;;;;;;;15.82;77.24;98668.02;1666434;84;20439;-68
2022/09/13 06:32:24;;;;;;;;;;;;;;;15.86;77.07;98665.17;1674592;84;20166;-68
2022/09/13 06:34:51;;;;;;;;;;;;;;;15.89;76.87;98668.75;1680047;84;20153;-68
2022/09/13 06:37:17;;;;;;;;;;;;;;;15.97;76.81;98669.80;1667130;84;20112;-68
2022/09/13 06:39:43;;;;;;;;;;;;;;;16.14;76.63;98669.19;1674643;84;21325;-68
2022/09/13 06:42:09;;;;;;;;;;;;;;;16.39;76.00;98671.23;1669166;84;20109;-68
2022/09/13 06:44:38;;;;;;;;;;;;;;;16.56;75.39;98669.58;1673035;84;20099;-68
2022/09/13 06:47:05;;;;;;;;;;;;;;;16.72;74.42;98663.56;1668968;84;20171;-69
2022/09/13 06:49:31;;;;;;;;;;;;;;;16.84;74.05;98673.02;1680128;84;20107;-69
2022/09/13 06:51:57;;;;;;;;;;;;;;;17.05;73.16;98673.28;1679022;84;21158;-69
2022/09/13 06:54:23;;;;;;;;;;;;;;;17.13;72.57;98670.77;1662800;84;20157;-69
2022/09/13 06:56:50;;;;;;;;;;;;;;;17.26;72.48;98667.87;1680185;84;20203;-69
2022/09/13 06:59:16;;;;;;;;;;;;;;;17.59;71.65;98666.83;1665726;84;20151;-69
2022/09/13 07:01:42;;;;;;;;;;;;;;;17.89;70.68;98670.70;1680269;84;20405;-69
2022/09/13 07:04:10;;;;;;;;;;;;;;;18.15;69.66;98673.39;1657873;84;21305;-69
2022/09/13 07:06:39;;;;;;;;;;;;;;;18.28;68.39;98667.21;1671269;84;20123;-69
2022/09/13 07:09:07;;;;;;;;;;;;;;;18.42;67.45;98670.45;1689092;83;20075;-69
2022/09/13 07:11:35;;;;;;;;;;;;;;;18.51;66.64;98678.45;1699843;82;20123;-69
2022/09/13 07:14:01;;;;;;;;;;;;;;;18.58;66.23;98672.94;1662479;83;20436;-69
2022/09/13 07:16:29;;;;;;;;;;;;;;;18.64;65.71;98681.41;1697648;82;21969;-67
2022/09/13 07:18:57;;;;;;;;;;;;;;;18.61;65.09;98677.33;1690640;83;20088;-69
2022/09/13 07:21:24;;;;;;;;;;;;;;;18.57;64.74;98676.67;1716541;82;20157;-69
2022/09/13 07:23:50;;;;;;;;;;;;;;;18.54;64.58;98677.19;1690831;83;20457;-67
2022/09/13 07:26:17;;;;;;;;;;;;;;;18.59;64.60;98681.32;1716018;82;20150;-68
2022/09/13 07:28:45;;;;;;;;;;;;;;;18.72;64.23;98679.68;1690720;83;21267;-68
2022/09/13 07:31:16;;;;;;;;;;;;;;;18.82;63.99;98678.52;1709694;82;20497;-68
2022/09/13 07:33:43;;;;;;;;;;;;;;;18.92;63.76;98675.99;1691013;83;20112;-68
2022/09/13 07:36:10;;;;;;;;;;;;;;;19.06;63.49;98679.99;1708598;82;20115;-68
2022/09/13 07:38:39;;;;;;;;;;;;;;;19.19;63.02;98685.07;1664126;85;20475;-68
2022/09/13 07:41:08;;;;;;;;;;;;;;;19.23;62.41;98676.80;1716272;83;21264;-67
2022/09/13 07:43:35;;;;;;;;;;;;;;;19.19;61.70;98681.02;1688508;85;20128;-67
2022/09/13 07:46:05;;;;;;;;;;;;;;;19.14;61.35;98679.59;1693655;83;20141;-68
2022/09/13 07:48:32;;;;;;;;;;;;;;;19.14;61.47;98676.11;1686369;85;20148;-68
2022/09/13 07:51:03;;;;;;;;;;;;;;;19.19;61.44;98672.94;1707110;83;20087;-68
2022/09/13 07:53:30;;;;;;;;;;;;;;;19.38;61.37;98667.63;1666877;85;21236;-68
2022/09/13 07:56:03;;;;;;;;;;;;;;;19.59;60.75;98670.09;1715581;82;20107;-67
2022/09/13 07:58:30;;;;;;;;;;;;;;;19.55;59.94;98667.06;1687232;83;20458;-68
2022/09/13 08:01:14;;;;;;;;;;;;;;;19.43;59.70;98672.27;1707965;82;20074;-68
2022/09/13 08:03:41;;;;;;;;;;;;;;;19.24;59.65;98678.41;1706946;82;20088;-69
2022/09/13 08:06:07;;;;;;;;;;;;;;;19.06;60.18;98672.73;1716144;82;21262;-68
2022/09/13 08:08:34;;;;;;;;;;;;;;;18.93;59.99;98674.39;1716103;82;20165;-68
2022/09/13 08:11:01;;;;;;;;;;;;;;;18.79;60.12;98682.51;1716025;82;20079;-68
2022/09/13 08:13:27;;;;;;;;;;;;;;;18.73;60.49;98675.38;1716017;82;20107;-68
2022/09/13 08:15:55;;;;;;;;;;;;;;;18.64;60.83;98679.51;1698275;82;20086;-68
2022/09/13 08:18:21;;;;;;;;;;;;;;;18.73;61.05;98679.95;1716219;82;20648;-68
2022/09/13 08:20:47;;;;;;;;;;;;;;;18.98;60.98;98678.52;1716081;82;20534;-68
2022/09/13 08:23:13;;;;;;;;;;;;;;;19.21;60.48;98683.50;1716190;82;20409;-68
2022/09/13 08:25:40;;;;;;;;;;;;;;;19.42;60.34;98679.55;1716404;82;20115;-69
2022/09/13 08:28:08;;;;;;;;;;;;;;;19.68;59.75;98680.77;1715851;82;20111;-68
2022/09/13 08:30:35;;;;;;;;;;;;;;;20.05;58.69;98675.61;1706252;82;21254;-68
2022/09/13 08:33:03;;;;;;;;;;;;;;;20.33;57.46;98678.16;1711923;82;20086;-68
2022/09/13 08:35:30;;;;;;;;;;;;;;;20.61;56.23;98671.17;1716237;82;20128;-68
2022/09/13 08:37:56;;;;;;;;;;;;;;;20.82;55.45;98668.97;1716330;82;20095;-69
2022/09/13 08:40:23;;;;;;;;;;;;;;;21.08;54.57;98669.22;1716323;82;20115;-68
2022/09/13 08:42:59;;;;;;;;;;;;;;;21.17;53.85;98662.28;1716462;82;21150;-68
2022/09/13 08:45:25;;;;;;;;;;;;;;;21.20;53.79;98659.03;1674250;82;20606;-69
2022/09/13 08:47:55;;;;;;;;;;;;;;;21.07;54.01;98660.29;1706987;82;20083;-69
2022/09/13 08:50:25;;;;;;;;;;;;;;;21.04;54.07;98659.98;1716471;82;20099;-69
2022/09/13 08:52:54;;;;;;;;;;;;;;;20.89;53.57;98664.69;1706750;82;20090;-68
2022/09/13 08:55:59;;;;;;;;;;;;;;;20.70;53.47;98656.12;1711384;81;21130;-69
2022/09/13 08:58:59;;;;;;;;;;;;;;;20.58;53.56;98655.47;1683750;83;20476;-69
2022/09/13 09:01:35;;;;;;;;;;;;;;;20.46;53.66;98656.16;1716973;82;20095;-69
2022/09/13 09:04:32;;;;;;;;;;;;;;;20.43;54.13;98655.31;1697254;82;20057;-69
2022/09/13 09:07:09;;;;;;;;;;;;;;;20.46;54.78;98653.45;1717486;82;20141;-69
2022/09/13 09:09:44;;;;;;;;;;;;;;;20.48;54.11;98647.26;1719885;82;21146;-69
2022/09/13 09:12:38;;;;;;;;;;;;;;;20.43;53.82;98651.78;1665830;85;20442;-69
2022/09/13 09:15:15;;;;;;;;;;;;;;;20.46;53.81;98645.88;1702978;82;20122;-68
2022/09/13 09:18:03;;;;;;;;;;;;;;;20.47;53.76;98652.37;1692515;83;20086;-68
2022/09/13 09:20:41;;;;;;;;;;;;;;;20.38;53.32;98656.60;1721083;83;20127;-69
2022/09/13 09:23:16;;;;;;;;;;;;;;;20.10;53.64;98651.37;1680146;83;21157;-69
2022/09/13 09:25:43;;;;;;;;;;;;;;;19.89;53.93;98652.18;1707417;82;20436;-70
2022/09/13 09:28:12;;;;;;;;;;;;;;;19.70;54.18;98652.47;1713897;82;20437;-67
2022/09/13 09:31:03;;;;;;;;;;;;;;;19.55;54.52;98656.83;1707248;83;38085;-67
2022/09/13 09:33:36;;;;;;;;;;;;;;;19.38;55.11;98658.71;1692613;83;20140;-68
2022/09/13 09:36:06;;;;;;;;;;;;;;;19.20;55.55;98661.63;1712976;83;21825;-68
2022/09/13 09:38:36;;;;;;;;;;;;;;;19.04;56.07;98664.08;1652361;84;20100;-68
2022/09/13 09:41:24;;;;;;;;;;;;;;;18.90;56.37;98667.34;1711486;83;20095;-68
2022/09/13 09:44:00;;;;;;;;;;;;;;;18.74;57.00;98666.25;1705284;83;20137;-68
2022/09/13 09:46:29;;;;;;;;;;;;;;;18.52;57.91;98672.02;1699943;82;20156;-68
2022/09/13 09:48:58;;;;;;;;;;;;;;;18.33;58.91;98673.22;1705225;83;21150;-68
2022/09/13 09:51:25;;;;;;;;;;;;;;;18.24;59.47;98672.80;1693429;84;20091;-68
2022/09/13 09:53:55;;;;;;;;;;;;;;;18.16;59.89;98669.13;1721392;83;20189;-68
2022/09/13 09:56:25;;;;;;;;;;;;;;;18.13;60.24;98677.67;1681564;82;20189;-68
2022/09/13 09:58:53;;;;;;;;;;;;;;;18.13;60.60;98674.16;1716415;82;20109;-68
2022/09/13 10:01:24;;;;;;;;;;;;;;;18.11;60.86;98676.28;1691233;83;21155;-68
2022/09/13 10:04:07;;;;;;;;;;;;;;;18.16;61.12;98677.20;1702806;82;20642;-69
2022/09/13 10:06:36;;;;;;;;;;;;;;;18.20;61.15;98673.49;1671026;82;20100;-68
2022/09/13 10:09:08;;;;;;;;;;;;;;;18.29;61.46;98666.17;1693955;82;20096;-69
2022/09/13 10:11:57;;;;;;;;;;;;;;;18.37;61.38;98662.27;1704555;82;20104;-68
2022/09/13 10:14:38;;;;;;;;;;;;;;;18.53;61.22;98666.11;1702428;82;22178;-69
2022/09/13 10:17:27;;;;;;;;;;;;;;;18.62;60.90;98661.95;1711473;82;20098;-69
2022/09/13 10:20:00;;;;;;;;;;;;;;;18.76;60.66;98663.30;1681076;83;20089;-69
2022/09/13 10:22:28;;;;;;;;;;;;;;;18.93;60.24;98661.44;1707872;82;21121;-68
2022/09/13 10:24:55;;;;;;;;;;;;;;;19.06;59.60;98661.13;1697400;83;20115;-67
2022/09/13 10:27:37;;;;;;;;;;;;;;;19.18;59.07;98660.53;1666359;84;21159;-68
2022/09/13 10:30:05;;;;;;;;;;;;;;;19.26;58.62;98652.56;1680037;83;20121;-69
2022/09/13 10:32:32;;;;;;;;;;;;;;;19.30;58.20;98651.83;1688589;83;20099;-69
2022/09/13 10:35:07;;;;;;;;;;;;;;;19.32;57.81;98653.73;1716502;82;20198;-69
2022/09/13 10:37:35;;;;;;;;;;;;;;;19.34;57.70;98663.77;1716611;82;20127;-69
2022/09/13 10:40:06;;;;;;;;;;;;;;;19.41;57.80;98662.27;1695122;83;21222;-69
2022/09/13 10:42:33;;;;;;;;;;;;;;;19.45;57.46;98658.83;1685183;83;20425;-69
2022/09/13 10:45:05;;;;;;;;;;;;;;;19.44;56.88;98665.30;1703505;82;20079;-69
2022/09/13 10:47:44;;;;;;;;;;;;;;;19.38;56.60;98664.11;1716058;82;20123;-68
2022/09/13 10:50:26;;;;;;;;;;;;;;;19.27;56.47;98663.09;1666479;82;20123;-68
2022/09/13 10:52:57;;;;;;;;;;;;;;;19.13;56.74;98667.20;1704786;82;21115;-67
2022/09/13 10:55:35;;;;;;;;;;;;;;;19.00;57.14;98664.81;1712364;82;20075;-69
2022/09/13 10:58:08;;;;;;;;;;;;;;;18.86;57.68;98671.04;1719113;82;20115;-68
2022/09/13 11:01:12;;;;;;;;;;;;;;;18.72;58.09;98664.30;1719312;82;20437;-69
2022/09/13 11:04:04;;;;;;;;;;;;;;;18.62;58.53;98666.00;1719270;82;20453;-69
2022/09/13 11:06:46;;;;;;;;;;;;;;;18.47;58.95;98661.98;1719339;82;21165;-68
2022/09/13 11:09:24;;;;;;;;;;;;;;;18.34;59.31;98662.23;1708688;82;20519;-68
2022/09/13 11:12:17;;;;;;;;;;;;;;;18.31;59.82;98666.73;1714388;82;20455;-68
2022/09/13 11:14:47;;;;;;;;;;;;;;;18.24;60.10;98662.03;1717226;82;20087;-68
2022/09/13 11:17:35;;;;;;;;;;;;;;;18.20;60.19;98665.41;1713159;82;20125;-69
2022/09/13 11:20:08;;;;;;;;;;;;;;;18.13;60.33;98669.60;1702077;82;21124;-68
2022/09/13 11:22:38;;;;;;;;;;;;;;;18.02;60.47;98668.27;1690585;83;20099;-68
2022/09/13 11:25:28;;;;;;;;;;;;;;;17.92;60.58;98667.53;1685942;84;20149;-70
2022/09/13 11:28:28;;;;;;;;;;;;;;;17.84;60.79;98668.72;1708024;83;20208;-69
2022/09/13 11:31:13;;;;;;;;;;;;;;;17.76;61.01;98667.73;1689446;83;20170;-69
2022/09/13 11:34:07;;;;;;;;;;;;;;;17.68;61.23;98671.30;1707858;83;21168;-71
2022/09/13 11:36:42;;;;;;;;;;;;;;;17.63;61.51;98669.32;1690721;85;20171;-69
2022/09/13 11:39:12;;;;;;;;;;;;;;;17.59;61.95;98661.45;1702867;83;20462;-69
2022/09/13 11:41:49;;;;;;;;;;;;;;;17.55;62.40;98669.67;1707644;83;20161;-68
2022/09/13 11:44:35;;;;;;;;;;;;;;;17.48;62.52;98664.91;1693333;83;20174;-69
2022/09/13 11:47:25;;;;;;;;;;;;;;;17.40;62.79;98667.13;1710884;83;21194;-69
2022/09/13 11:50:10;;;;;;;;;;;;;;;17.33;63.16;98664.56;1681661;85;20469;-69
2022/09/13 11:52:41;;;;;;;;;;;;;;;17.32;63.33;98662.91;1706769;83;20149;-70
2022/09/13 11:55:17;;;;;;;;;;;;;;;17.27;63.60;98667.66;1701699;82;20559;-69
2022/09/13 11:57:49;;;;;;;;;;;;;;;17.26;63.81;98668.69;1704581;82;20097;-70
2022/09/13 12:00:24;;;;;;;;;;;;;;;17.18;64.23;98667.69;1682618;85;21168;-68
2022/09/13 12:03:03;;;;;;;;;;;;;;;17.15;64.53;98662.77;1715965;83;20083;-68
2022/09/13 12:05:44;;;;;;;;;;;;;;;17.16;64.64;98659.05;1690793;85;20099;-68
2022/09/13 12:08:37;;;;;;;;;;;;;;;17.20;64.80;98652.69;1716177;83;20095;-67
2022/09/13 12:11:07;;;;;;;;;;;;;;;17.20;64.84;98654.86;1690757;85;20147;-67
2022/09/13 12:13:43;;;;;;;;;;;;;;;17.22;65.08;98658.13;1690619;85;20874;-67
2022/09/13 12:16:12;;;;;;;;;;;;;;;17.26;65.26;98645.84;1696685;82;20121;-67
2022/09/13 12:18:47;;;;;;;;;;;;;;;17.29;65.25;98649.94;1675353;83;20138;-67
2022/09/13 12:21:18;;;;;;;;;;;;;;;17.29;65.27;98652.11;1709624;83;20088;-68
2022/09/13 12:24:03;;;;;;;;;;;;;;;17.42;65.05;98650.23;1719503;83;20103;-68
2022/09/13 12:26:46;;;;;;;;;;;;;;;17.44;64.98;98654.87;1721545;83;21151;-67
2022/09/13 12:29:18;;;;;;;;;;;;;;;17.43;64.93;98651.87;1712164;83;20141;-68
2022/09/13 12:31:44;;;;;;;;;;;;;;;17.40;65.17;98646.96;1706374;83;20085;-68
2022/09/13 12:34:17;;;;;;;;;;;;;;;17.41;65.29;98643.23;1721318;83;20139;-68
2022/09/13 12:37:04;;;;;;;;;;;;;;;17.43;65.47;98647.84;1721499;83;20213;-68
2022/09/13 12:39:52;;;;;;;;;;;;;;;17.42;65.44;98648.37;1721778;83;21160;-70
2022/09/13 12:42:22;;;;;;;;;;;;;;;17.41;65.26;98643.23;1721377;83;20150;-71
2022/09/13 12:45:17;;;;;;;;;;;;;;;17.47;65.00;98642.31;1721354;83;20071;-67
2022/09/13 12:48:03;;;;;;;;;;;;;;;17.55;64.52;98632.02;1706550;83;20438;-67
2022/09/13 12:50:45;;;;;;;;;;;;;;;17.63;64.43;98628.16;1710210;83;20107;-68
2022/09/13 12:53:17;;;;;;;;;;;;;;;17.73;63.80;98635.92;1705491;83;21831;-67
2022/09/13 12:56:00;;;;;;;;;;;;;;;17.77;63.02;98633.06;1717943;82;20169;-68
2022/09/13 12:58:36;;;;;;;;;;;;;;;17.82;62.75;98635.04;1717571;82;20104;-67
2022/09/13 13:01:06;;;;;;;;;;;;;;;17.85;62.71;98637.27;1720737;82;20426;-67
2022/09/13 13:03:36;;;;;;;;;;;;;;;17.89;62.71;98635.20;1704666;82;20089;-67
2022/09/13 13:06:26;;;;;;;;;;;;;;;17.91;62.49;98635.50;1719599;82;21869;-67
2022/09/13 13:08:54;;;;;;;;;;;;;;;17.89;62.47;98630.34;1693474;82;20097;-68
2022/09/13 13:11:25;;;;;;;;;;;;;;;17.93;62.39;98630.17;1712892;83;20075;-68
2022/09/13 13:13:56;;;;;;;;;;;;;;;17.93;62.44;98619.41;1712334;82;20127;-67
2022/09/13 13:16:32;;;;;;;;;;;;;;;17.93;62.41;98626.13;1718306;82;20107;-67